PWSweather.com
Personal Weather Stations
Station Observations
KSCCLEMS2
Meadow Rose, Clemson, SC 29631

Meadow RoseClemson, SC 29631

Lat: 34.67917, Lon: -82.8145

Elevation: 820

Station Type: Davis Pro2

http://kimblerphoto.com/weather

High Low Average
Temperature 72.6°F22.6°C 51.7°F10.9°C 61.2°F16.2°C
Dew Point 58.2°F14.6°C 48.3°F9.1°C 51.9°F11.1°C
Winds 3.0 mph 4.8 kmh Calm Calm Calm SCalm S
Wind Gusts 5.0 mph8.0 kmh -- 1.0 mph1.6 kmh
Humidity 89% 48% 73%
Pressure 30.43 in1030.5 mb 30.15 in1021.0 mb -
Precipitation 0.00 in0.0 mm - -
Hour Temp Dew Point Humidity Winds Wind Gusts Pressure Precip Precip Rate Daily Precip Total
12:15 AM 53.6°F12.0°C 49.2°F9.6°C 85% Calm Calm -- 30.42 in1030.1 mb 0.00 in0.0 mm 0.00 in/hr0.0 mm/hr 0.00 in0.0 mm
12:31 AM 53.8°F12.1°C 49.4°F9.7°C 85% Calm Calm -- 30.42 in1030.1 mb 0.00 in0.0 mm 0.00 in/hr0.0 mm/hr 0.00 in0.0 mm
12:45 AM 54.7°F12.6°C 49.7°F9.8°C 83% Calm Calm -- 30.42 in1030.1 mb 0.00 in0.0 mm 0.00 in/hr0.0 mm/hr 0.00 in0.0 mm
01:01 AM 55.4°F13.0°C 50.0°F10.0°C 82% Calm Calm -- 30.42 in1030.1 mb 0.00 in0.0 mm 0.00 in/hr0.0 mm/hr 0.00 in0.0 mm
01:15 AM 55.3°F12.9°C 50.2°F10.1°C 83% Calm Calm -- 30.43 in1030.5 mb 0.00 in0.0 mm 0.00 in/hr0.0 mm/hr 0.00 in0.0 mm
01:35 AM 55.5°F13.1°C 50.1°F10.1°C 82% Calm Calm -- 30.42 in1030.1 mb 0.00 in0.0 mm 0.00 in/hr0.0 mm/hr 0.00 in0.0 mm
01:45 AM 55.5°F13.1°C 50.4°F10.2°C 83% Calm Calm -- 30.42 in1030.1 mb 0.00 in0.0 mm 0.00 in/hr0.0 mm/hr 0.00 in0.0 mm
02:01 AM 55.4°F13.0°C 50.3°F10.2°C 83% Calm Calm -- 30.42 in1030.1 mb 0.00 in0.0 mm 0.00 in/hr0.0 mm/hr 0.00 in0.0 mm
02:15 AM 55.3°F12.9°C 50.2°F10.1°C 83% Calm Calm -- 30.42 in1030.1 mb 0.00 in0.0 mm 0.00 in/hr0.0 mm/hr 0.00 in0.0 mm
02:31 AM 55.1°F12.8°C 50.0°F10.0°C 83% Calm Calm -- 30.41 in1029.8 mb 0.00 in0.0 mm 0.00 in/hr0.0 mm/hr 0.00 in0.0 mm
02:45 AM 55.4°F13.0°C 50.3°F10.2°C 83% Calm Calm -- 30.41 in1029.8 mb 0.00 in0.0 mm 0.00 in/hr0.0 mm/hr 0.00 in0.0 mm
03:01 AM 55.5°F13.1°C 50.1°F10.1°C 82% Calm Calm -- 30.41 in1029.8 mb 0.00 in0.0 mm 0.00 in/hr0.0 mm/hr 0.00 in0.0 mm
03:18 AM 55.1°F12.8°C 50.4°F10.2°C 84% Calm Calm -- 30.40 in1029.5 mb 0.00 in0.0 mm 0.00 in/hr0.0 mm/hr 0.00 in0.0 mm
03:30 AM 54.8°F12.7°C 50.1°F10.1°C 84% Calm Calm -- 30.40 in1029.5 mb 0.00 in0.0 mm 0.00 in/hr0.0 mm/hr 0.00 in0.0 mm
03:45 AM 54.6°F12.6°C 50.2°F10.1°C 85% Calm Calm -- 30.40 in1029.5 mb 0.00 in0.0 mm 0.00 in/hr0.0 mm/hr 0.00 in0.0 mm
04:01 AM 54.2°F12.3°C 49.8°F9.9°C 85% Calm Calm -- 30.40 in1029.5 mb 0.00 in0.0 mm 0.00 in/hr0.0 mm/hr 0.00 in0.0 mm
04:15 AM 54.1°F12.3°C 50.0°F10.0°C 86% Calm Calm -- 30.40 in1029.5 mb 0.00 in0.0 mm 0.00 in/hr0.0 mm/hr 0.00 in0.0 mm
04:32 AM 53.9°F12.2°C 49.8°F9.9°C 86% Calm Calm -- 30.39 in1029.1 mb 0.00 in0.0 mm 0.00 in/hr0.0 mm/hr 0.00 in0.0 mm
04:45 AM 53.8°F12.1°C 49.7°F9.8°C 86% Calm Calm -- 30.39 in1029.1 mb 0.00 in0.0 mm 0.00 in/hr0.0 mm/hr 0.00 in0.0 mm
05:01 AM 53.5°F11.9°C 49.7°F9.8°C 87% Calm Calm -- 30.40 in1029.5 mb 0.00 in0.0 mm 0.00 in/hr0.0 mm/hr 0.00 in0.0 mm
05:15 AM 53.1°F11.7°C 49.3°F9.6°C 87% Calm Calm -- 30.40 in1029.5 mb 0.00 in0.0 mm 0.00 in/hr0.0 mm/hr 0.00 in0.0 mm
05:31 AM 52.8°F11.6°C 49.4°F9.7°C 88% Calm Calm -- 30.40 in1029.5 mb 0.00 in0.0 mm 0.00 in/hr0.0 mm/hr 0.00 in0.0 mm
05:45 AM 52.6°F11.4°C 49.2°F9.6°C 88% Calm Calm -- 30.40 in1029.5 mb 0.00 in0.0 mm 0.00 in/hr0.0 mm/hr 0.00 in0.0 mm
06:15 AM 52.3°F11.3°C 48.9°F9.4°C 88% Calm Calm -- 30.40 in1029.5 mb 0.00 in0.0 mm 0.00 in/hr0.0 mm/hr 0.00 in0.0 mm
06:31 AM 52.0°F11.1°C 48.6°F9.2°C 88% Calm Calm -- 30.40 in1029.5 mb 0.00 in0.0 mm 0.00 in/hr0.0 mm/hr 0.00 in0.0 mm
06:45 AM 51.7°F10.9°C 48.3°F9.1°C 88% Calm Calm -- 30.40 in1029.5 mb 0.00 in0.0 mm 0.00 in/hr0.0 mm/hr 0.00 in0.0 mm
07:15 AM 51.9°F11.1°C 48.8°F9.3°C 89% Calm Calm -- 30.40 in1029.5 mb 0.00 in0.0 mm 0.00 in/hr0.0 mm/hr 0.00 in0.0 mm
07:31 AM 52.3°F11.3°C 49.2°F9.6°C 89% Calm Calm -- 30.40 in1029.5 mb 0.00 in0.0 mm 0.00 in/hr0.0 mm/hr 0.00 in0.0 mm
07:45 AM 52.8°F11.6°C 49.7°F9.8°C 89% Calm Calm -- 30.39 in1029.1 mb 0.00 in0.0 mm 0.00 in/hr0.0 mm/hr 0.00 in0.0 mm
08:04 AM 53.9°F12.2°C 50.4°F10.2°C 88% Calm Calm -- 30.40 in1029.5 mb 0.00 in0.0 mm 0.00 in/hr0.0 mm/hr 0.00 in0.0 mm
08:15 AM 54.6°F12.6°C 50.8°F10.4°C 87% Calm Calm -- 30.40 in1029.5 mb 0.00 in0.0 mm 0.00 in/hr0.0 mm/hr 0.00 in0.0 mm
08:32 AM 55.8°F13.2°C 51.4°F10.8°C 85% Calm Calm -- 30.39 in1029.1 mb 0.00 in0.0 mm 0.00 in/hr0.0 mm/hr 0.00 in0.0 mm
08:45 AM 56.5°F13.6°C 51.7°F10.9°C 84% Calm Calm -- 30.38 in1028.8 mb 0.00 in0.0 mm 0.00 in/hr0.0 mm/hr 0.00 in0.0 mm
09:01 AM 58.0°F14.4°C 51.9°F11.1°C 80% Calm Calm -- 30.38 in1028.8 mb 0.00 in0.0 mm 0.00 in/hr0.0 mm/hr 0.00 in0.0 mm
09:18 AM 58.9°F14.9°C 52.8°F11.6°C 80% Calm Calm -- 30.38 in1028.8 mb 0.00 in0.0 mm 0.00 in/hr0.0 mm/hr 0.00 in0.0 mm
09:42 AM 60.0°F15.6°C 53.5°F11.9°C 79% Calm Calm 1.0 mph1.6 kmh 30.37 in1028.4 mb 0.00 in0.0 mm 0.00 in/hr0.0 mm/hr 0.00 in0.0 mm
09:45 AM 60.2°F15.7°C 53.3°F11.8°C 78% Calm Calm 2.0 mph3.2 kmh 30.37 in1028.4 mb 0.00 in0.0 mm 0.00 in/hr0.0 mm/hr 0.00 in0.0 mm
10:01 AM 60.7°F15.9°C 53.8°F12.1°C 78% 1.0 mph S1.6 kmh S 1.0 mph1.6 kmh 30.37 in1028.4 mb 0.00 in0.0 mm 0.00 in/hr0.0 mm/hr 0.00 in0.0 mm
10:15 AM 61.0°F16.1°C 53.8°F12.1°C 77% Calm Calm -- 30.37 in1028.4 mb 0.00 in0.0 mm 0.00 in/hr0.0 mm/hr 0.00 in0.0 mm
10:31 AM 61.7°F16.5°C 54.1°F12.3°C 76% 1.0 mph SW1.6 kmh SW 1.0 mph1.6 kmh 30.37 in1028.4 mb 0.00 in0.0 mm 0.00 in/hr0.0 mm/hr 0.00 in0.0 mm
10:45 AM 62.1°F16.7°C 54.5°F12.5°C 76% 2.0 mph NW3.2 kmh NW 2.0 mph3.2 kmh 30.37 in1028.4 mb 0.00 in0.0 mm 0.00 in/hr0.0 mm/hr 0.00 in0.0 mm
11:16 AM 63.9°F17.7°C 55.5°F13.1°C 74% Calm Calm 1.0 mph1.6 kmh 30.36 in1028.1 mb 0.00 in0.0 mm 0.00 in/hr0.0 mm/hr 0.00 in0.0 mm
11:31 AM 67.1°F19.5°C 56.2°F13.4°C 68% Calm Calm 3.0 mph4.8 kmh 30.35 in1027.8 mb 0.00 in0.0 mm 0.00 in/hr0.0 mm/hr 0.00 in0.0 mm
11:49 AM 66.3°F19.1°C 56.2°F13.4°C 70% Calm Calm 2.0 mph3.2 kmh 30.34 in1027.4 mb 0.00 in0.0 mm 0.00 in/hr0.0 mm/hr 0.00 in0.0 mm
12:01 PM 66.7°F19.3°C 56.6°F13.7°C 70% 2.0 mph S3.2 kmh S 2.0 mph3.2 kmh 30.33 in1027.1 mb 0.00 in0.0 mm 0.00 in/hr0.0 mm/hr 0.00 in0.0 mm
12:16 PM 68.8°F20.4°C 58.2°F14.6°C 69% 1.0 mph S1.6 kmh S 3.0 mph4.8 kmh 30.33 in1027.1 mb 0.00 in0.0 mm 0.00 in/hr0.0 mm/hr 0.00 in0.0 mm
12:30 PM 69.5°F20.8°C 57.7°F14.3°C 66% Calm Calm -- 30.32 in1026.8 mb 0.00 in0.0 mm 0.00 in/hr0.0 mm/hr 0.00 in0.0 mm
12:48 PM 69.9°F21.1°C 56.8°F13.8°C 63% 1.0 mph SSW1.6 kmh SSW 2.0 mph3.2 kmh 30.30 in1026.1 mb 0.00 in0.0 mm 0.00 in/hr0.0 mm/hr 0.00 in0.0 mm
01:17 PM 70.4°F21.3°C 55.4°F13.0°C 59% 1.0 mph SW1.6 kmh SW 1.0 mph1.6 kmh 30.27 in1025.1 mb 0.00 in0.0 mm 0.00 in/hr0.0 mm/hr 0.00 in0.0 mm
01:31 PM 70.0°F21.1°C 54.1°F12.3°C 57% Calm Calm 3.0 mph4.8 kmh 30.26 in1024.7 mb 0.00 in0.0 mm 0.00 in/hr0.0 mm/hr 0.00 in0.0 mm
01:45 PM 70.1°F21.2°C 54.2°F12.3°C 57% 1.0 mph SW1.6 kmh SW 2.0 mph3.2 kmh 30.26 in1024.7 mb 0.00 in0.0 mm 0.00 in/hr0.0 mm/hr 0.00 in0.0 mm
02:15 PM 71.3°F21.8°C 54.8°F12.7°C 56% 2.0 mph SSE3.2 kmh SSE 3.0 mph4.8 kmh 30.25 in1024.4 mb 0.00 in0.0 mm 0.00 in/hr0.0 mm/hr 0.00 in0.0 mm
02:31 PM 71.2°F21.8°C 54.2°F12.3°C 55% 3.0 mph SE4.8 kmh SE 5.0 mph8.0 kmh 30.22 in1023.4 mb 0.00 in0.0 mm 0.00 in/hr0.0 mm/hr 0.00 in0.0 mm
02:47 PM 71.4°F21.9°C 53.9°F12.2°C 54% Calm Calm -- 30.22 in1023.4 mb 0.00 in0.0 mm 0.00 in/hr0.0 mm/hr 0.00 in0.0 mm
03:01 PM 71.5°F21.9°C 54.5°F12.5°C 55% Calm Calm 1.0 mph1.6 kmh 30.21 in1023.0 mb 0.00 in0.0 mm 0.00 in/hr0.0 mm/hr 0.00 in0.0 mm
03:15 PM 72.6°F22.6°C 54.0°F12.2°C 52% 2.0 mph SSW3.2 kmh SSW 2.0 mph3.2 kmh 30.20 in1022.7 mb 0.00 in0.0 mm 0.00 in/hr0.0 mm/hr 0.00 in0.0 mm
03:31 PM 72.5°F22.5°C 51.7°F10.9°C 48% Calm Calm 5.0 mph8.0 kmh 30.18 in1022.0 mb 0.00 in0.0 mm 0.00 in/hr0.0 mm/hr 0.00 in0.0 mm
03:48 PM 72.6°F22.6°C 52.9°F11.6°C 50% Calm Calm 1.0 mph1.6 kmh 30.18 in1022.0 mb 0.00 in0.0 mm 0.00 in/hr0.0 mm/hr 0.00 in0.0 mm
04:02 PM 72.0°F22.2°C 51.3°F10.7°C 48% Calm Calm 3.0 mph4.8 kmh 30.18 in1022.0 mb 0.00 in0.0 mm 0.00 in/hr0.0 mm/hr 0.00 in0.0 mm
04:15 PM 71.3°F21.8°C 50.6°F10.3°C 48% 1.0 mph NW1.6 kmh NW 1.0 mph1.6 kmh 30.18 in1022.0 mb 0.00 in0.0 mm 0.00 in/hr0.0 mm/hr 0.00 in0.0 mm
04:31 PM 71.5°F21.9°C 51.4°F10.8°C 49% Calm Calm -- 30.18 in1022.0 mb 0.00 in0.0 mm 0.00 in/hr0.0 mm/hr 0.00 in0.0 mm
04:45 PM 71.4°F21.9°C 52.9°F11.6°C 52% Calm Calm -- 30.18 in1022.0 mb 0.00 in0.0 mm 0.00 in/hr0.0 mm/hr 0.00 in0.0 mm
05:01 PM 71.3°F21.8°C 51.2°F10.7°C 49% Calm Calm 1.0 mph1.6 kmh 30.18 in1022.0 mb 0.00 in0.0 mm 0.00 in/hr0.0 mm/hr 0.00 in0.0 mm
05:15 PM 71.2°F21.8°C 54.2°F12.3°C 55% Calm Calm 1.0 mph1.6 kmh 30.18 in1022.0 mb 0.00 in0.0 mm 0.00 in/hr0.0 mm/hr 0.00 in0.0 mm
05:31 PM 70.4°F21.3°C 53.0°F11.7°C 54% Calm Calm -- 30.17 in1021.7 mb 0.00 in0.0 mm 0.00 in/hr0.0 mm/hr 0.00 in0.0 mm
05:46 PM 69.3°F20.7°C 53.4°F11.9°C 57% Calm Calm -- 30.16 in1021.3 mb 0.00 in0.0 mm 0.00 in/hr0.0 mm/hr 0.00 in0.0 mm
06:15 PM 68.0°F20.0°C 52.7°F11.5°C 58% Calm Calm 1.0 mph1.6 kmh 30.16 in1021.3 mb 0.00 in0.0 mm 0.00 in/hr0.0 mm/hr 0.00 in0.0 mm
06:30 PM 67.3°F19.6°C 52.0°F11.1°C 58% Calm Calm -- 30.15 in1021.0 mb 0.00 in0.0 mm 0.00 in/hr0.0 mm/hr 0.00 in0.0 mm
06:45 PM 67.1°F19.5°C 52.8°F11.6°C 60% Calm Calm 1.0 mph1.6 kmh 30.15 in1021.0 mb 0.00 in0.0 mm 0.00 in/hr0.0 mm/hr 0.00 in0.0 mm
07:00 PM 66.1°F18.9°C 52.3°F11.3°C 61% Calm Calm -- 30.14 in1020.7 mb 0.00 in0.0 mm 0.00 in/hr0.0 mm/hr 0.00 in0.0 mm
07:18 PM 66.0°F18.9°C 52.6°F11.4°C 62% Calm Calm -- 30.14 in1020.7 mb 0.00 in0.0 mm 0.00 in/hr0.0 mm/hr 0.00 in0.0 mm
07:31 PM 65.6°F18.7°C 52.7°F11.5°C 63% Calm Calm -- 30.14 in1020.7 mb 0.00 in0.0 mm 0.00 in/hr0.0 mm/hr 0.00 in0.0 mm
07:45 PM 65.4°F18.6°C 52.9°F11.6°C 64% Calm Calm -- 30.14 in1020.7 mb 0.00 in0.0 mm 0.00 in/hr0.0 mm/hr 0.00 in0.0 mm
08:01 PM 65.0°F18.3°C 53.0°F11.7°C 65% Calm Calm -- 30.13 in1020.3 mb 0.00 in0.0 mm 0.00 in/hr0.0 mm/hr 0.00 in0.0 mm
08:15 PM 65.1°F18.4°C 53.1°F11.7°C 65% Calm Calm -- 30.13 in1020.3 mb 0.00 in0.0 mm 0.00 in/hr0.0 mm/hr 0.00 in0.0 mm
08:34 PM 64.7°F18.2°C 53.1°F11.7°C 66% Calm Calm -- 30.13 in1020.3 mb 0.00 in0.0 mm 0.00 in/hr0.0 mm/hr 0.00 in0.0 mm
08:45 PM 64.2°F17.9°C 53.0°F11.7°C 67% Calm Calm -- 30.13 in1020.3 mb 0.00 in0.0 mm 0.00 in/hr0.0 mm/hr 0.00 in0.0 mm
09:01 PM 64.0°F17.8°C 52.8°F11.6°C 67% Calm Calm -- 30.13 in1020.3 mb 0.00 in0.0 mm 0.00 in/hr0.0 mm/hr 0.00 in0.0 mm
09:15 PM 63.4°F17.4°C 53.5°F11.9°C 70% Calm Calm -- 30.11 in1019.6 mb 0.00 in0.0 mm 0.00 in/hr0.0 mm/hr 0.00 in0.0 mm
09:31 PM 62.9°F17.2°C 52.6°F11.4°C 69% Calm Calm -- 30.11 in1019.6 mb 0.00 in0.0 mm 0.00 in/hr0.0 mm/hr 0.00 in0.0 mm
09:45 PM 62.8°F17.1°C 52.9°F11.6°C 70% Calm Calm -- 30.11 in1019.6 mb 0.00 in0.0 mm 0.00 in/hr0.0 mm/hr 0.00 in0.0 mm
10:01 PM 62.8°F17.1°C 53.3°F11.8°C 71% Calm Calm -- 30.10 in1019.3 mb 0.00 in0.0 mm 0.00 in/hr0.0 mm/hr 0.00 in0.0 mm
10:15 PM 63.2°F17.3°C 53.7°F12.1°C 71% 1.0 mph S1.6 kmh S 1.0 mph1.6 kmh 30.10 in1019.3 mb 0.00 in0.0 mm 0.00 in/hr0.0 mm/hr 0.00 in0.0 mm
10:31 PM 64.8°F18.2°C 53.2°F11.8°C 66% Calm Calm -- 30.09 in1019.0 mb 0.00 in0.0 mm 0.00 in/hr0.0 mm/hr 0.00 in0.0 mm
10:45 PM 65.0°F18.3°C 53.8°F12.1°C 67% Calm Calm -- 30.09 in1019.0 mb 0.00 in0.0 mm 0.00 in/hr0.0 mm/hr 0.00 in0.0 mm
11:01 PM 65.2°F18.4°C 53.2°F11.8°C 65% Calm Calm -- 30.09 in1019.0 mb 0.00 in0.0 mm 0.00 in/hr0.0 mm/hr 0.00 in0.0 mm
11:16 PM 65.2°F18.4°C 53.6°F12.0°C 66% Calm Calm -- 30.09 in1019.0 mb 0.00 in0.0 mm 0.00 in/hr0.0 mm/hr 0.00 in0.0 mm
11:31 PM 65.4°F18.6°C 53.8°F12.1°C 66% Calm Calm 1.0 mph1.6 kmh 30.09 in1019.0 mb 0.00 in0.0 mm 0.00 in/hr0.0 mm/hr 0.00 in0.0 mm
11:48 PM 64.6°F18.1°C 53.4°F11.9°C 67% Calm Calm 1.0 mph1.6 kmh 30.09 in1019.0 mb 0.00 in0.0 mm 0.00 in/hr0.0 mm/hr 0.00 in0.0 mm